Stena Impression — 2IDH5 — position and weather

sailwx.info

Track history (hours):
 
Tides and Currents Weather Stations Pressure Air Temp Water Temp Dewpoint Dewpoint Depression Visibility Wind Speed Wind Dir Waves Ship Positions

Stena Impression

Last reported at 2017-Oct-05 21:59 UTC. Time now 2017-Oct-17 20:41 UTC.
Position N 29°23' W 094°49'.
Warning: this ship's position is 11 days out of date.

Length 183 m; draft 11.2 m.

Type: Ship. MMSI: 235108755.

Date/timePositionNaut miles runAvg speedWind from/ knotsBaromVisibWave heightAir tempDewpointWater temp
2017-Oct-05 21:59N 29°23' W 094°49'510.7
2017-Oct-05 21:30N 29°28' W 094°51'511.1
2017-Oct-05 21:00N 29°32' W 094°54'611.0
2017-Oct-05 20:30N 29°37' W 094°57'5 9.8
2017-Oct-05 20:00N 29°42' W 094°60'3 6.9
2017-Oct-05 19:30N 29°44' W 095°03'3 5.6
2017-Oct-05 18:57N 29°45' W 095°06'1 0.1
2017-Oct-04 15:22N 29°44' W 095°07'1 2.5
2017-Oct-04 14:58N 29°45' W 095°06'2 5.0
2017-Oct-04 14:29N 29°44' W 095°04'3 6.4
2017-Oct-04 14:00N 29°42' W 095°01'5 9.6
2017-Oct-04 13:30N 29°38' W 094°58'611.9
2017-Oct-04 13:00N 29°33' W 094°55'12 0.3
2017-Oct-02 22:22N 29°23' W 094°48'512.3
2017-Oct-02 21:59N 29°27' W 094°51'611.7
2017-Oct-02 21:30N 29°32' W 094°54'611.6
2017-Oct-02 21:00N 29°37' W 094°57'510.7
2017-Oct-02 20:30N 29°42' W 094°60'4 7.4
2017-Oct-02 20:00N 29°44' W 095°03'3 5.5
2017-Oct-02 19:30N 29°45' W 095°06'3 5.8
2017-Oct-02 19:00N 29°44' W 095°10'3 5.0
2017-Oct-02 18:26N 29°44' W 095°13'2 3.7
2017-Oct-02 18:00N 29°43' W 095°14'1 0.1
2017-Oct-02 11:22N 29°43' W 095°14'0 0.0
2017-Oct-02 10:52N 29°43' W 095°14'0 0.0
2017-Oct-02 10:28N 29°43' W 095°14'0 0.0
2017-Oct-02 09:55N 29°43' W 095°14'0 0.0
2017-Oct-02 07:58N 29°43' W 095°14'0 0.0
2017-Oct-02 07:28N 29°43' W 095°14'0 0.0
2017-Oct-02 06:55N 29°43' W 095°14'0 0.0
2017-Oct-02 06:28N 29°43' W 095°14'0 0.0
2017-Oct-02 05:58N 29°43' W 095°14'0 0.0
2017-Oct-02 05:28N 29°43' W 095°14'0 0.0
2017-Oct-02 04:55N 29°43' W 095°14'0 0.0
2017-Oct-02 03:49N 29°43' W 095°14'0 0.0
2017-Oct-02 03:07N 29°43' W 095°14'0 0.0
2017-Oct-02 02:55N 29°43' W 095°14'0 0.0
2017-Oct-02 02:25N 29°43' W 095°14'0 0.0
2017-Oct-02 01:43N 29°43' W 095°14'0 0.0
2017-Oct-02 01:25N 29°43' W 095°14'0 0.0
2017-Oct-02 00:43N 29°43' W 095°14'0 0.0
2017-Oct-02 00:22N 29°43' W 095°14'0 0.0
2017-Oct-01 23:58N 29°43' W 095°14'0 0.0
2017-Oct-01 23:22N 29°43' W 095°14'0 0.0
2017-Oct-01 22:49N 29°43' W 095°14'0 0.0
2017-Oct-01 22:28N 29°43' W 095°14'0 0.0
2017-Oct-01 21:49N 29°43' W 095°14'0 0.0
2017-Oct-01 21:10N 29°43' W 095°14'0 0.0
2017-Oct-01 20:55N 29°43' W 095°14'0 0.0
2017-Oct-01 20:22N 29°43' W 095°14'0 0.0
2017-Oct-01 19:55N 29°43' W 095°14'0 0.0
2017-Oct-01 19:28N 29°43' W 095°14'0 0.0
2017-Oct-01 18:55N 29°43' W 095°14'0 0.0
2017-Oct-01 18:04N 29°43' W 095°14'0 0.0
2017-Oct-01 17:55N 29°43' W 095°14'0 0.0
2017-Oct-01 17:10N 29°43' W 095°14'0 0.0
2017-Oct-01 16:43N 29°43' W 095°14'0 0.0
2017-Oct-01 14:46N 29°43' W 095°14'0 0.0
2017-Oct-01 14:22N 29°43' W 095°14'0 0.0
2017-Oct-01 12:43N 29°43' W 095°14'0 0.0
2017-Oct-01 12:16N 29°43' W 095°14'0 0.0
2017-Oct-01 11:49N 29°43' W 095°14'0 0.0
2017-Oct-01 11:28N 29°43' W 095°14'0 0.0
2017-Oct-01 10:55N 29°43' W 095°14'0 0.0
2017-Oct-01 10:30N 29°43' W 095°14'0 0.0
2017-Oct-01 10:01N 29°43' W 095°14'0 0.0
2017-Oct-01 09:28N 29°43' W 095°14'0 0.0
2017-Oct-01 08:55N 29°43' W 095°14'0 0.0
2017-Oct-01 08:19N 29°43' W 095°14'0 0.0
2017-Oct-01 08:00N 29°43' W 095°14'0 0.0
2017-Oct-01 07:27N 29°43' W 095°14'0 0.0
2017-Oct-01 07:00N 29°43' W 095°14'0 0.0
2017-Oct-01 06:30N 29°43' W 095°14'0 0.0
2017-Oct-01 05:58N 29°43' W 095°14'0 0.0
2017-Oct-01 05:28N 29°43' W 095°14'0 0.0
2017-Oct-01 04:54N 29°43' W 095°14'0 0.0
2017-Oct-01 04:27N 29°43' W 095°14'0 0.0
2017-Oct-01 03:37N 29°43' W 095°14'0 0.0
2017-Oct-01 03:18N 29°43' W 095°14'0 0.0
2017-Oct-01 03:00N 29°43' W 095°14'0 0.0
2017-Sep-30 02:00N 29°43' W 095°14'1 1.2
2017-Sep-30 01:30N 29°43' W 095°14'1 2.6
2017-Sep-30 01:00N 29°44' W 095°13'3 5.2
2017-Sep-30 00:30N 29°45' W 095°10'3 6.0
2017-Sep-30 00:00N 29°44' W 095°07'3 5.4
2017-Sep-29 23:30N 29°45' W 095°04'4 7.1
2017-Sep-29 23:00N 29°42' W 095°01'510.2
2017-Sep-29 22:30N 29°38' W 094°58'611.9
2017-Sep-29 22:01N 29°33' W 094°54'  
2017-Sep-25 22:24N 25°10' W 080°05'  
Track history (hours):
 
Tides and Currents Weather Stations Pressure Air Temp Water Temp Dewpoint Dewpoint Depression Visibility Wind Speed Wind Dir Waves Ship Positions

Stena Impression

Last reported at 2017-Oct-05 21:59 UTC. Time now 2017-Oct-17 20:41 UTC.
Position N 29°23' W 094°49'.
Warning: this ship's position is 11 days out of date.

Length 183 m; draft 11.2 m.

Type: Ship. MMSI: 235108755.

Date/timePositionNaut miles runAvg speedWind from/ knotsBaromVisibWave heightAir tempDewpointWater temp
2017-Oct-05 21:59N 29°23' W 094°49'510.7
2017-Oct-05 21:30N 29°28' W 094°51'511.1
2017-Oct-05 21:00N 29°32' W 094°54'611.0
2017-Oct-05 20:30N 29°37' W 094°57'5 9.8
2017-Oct-05 20:00N 29°42' W 094°60'3 6.9
2017-Oct-05 19:30N 29°44' W 095°03'3 5.6
2017-Oct-05 18:57N 29°45' W 095°06'1 0.1
2017-Oct-04 15:22N 29°44' W 095°07'1 2.5
2017-Oct-04 14:58N 29°45' W 095°06'2 5.0
2017-Oct-04 14:29N 29°44' W 095°04'3 6.4
2017-Oct-04 14:00N 29°42' W 095°01'5 9.6
2017-Oct-04 13:30N 29°38' W 094°58'611.9
2017-Oct-04 13:00N 29°33' W 094°55'12 0.3
2017-Oct-02 22:22N 29°23' W 094°48'512.3
2017-Oct-02 21:59N 29°27' W 094°51'611.7
2017-Oct-02 21:30N 29°32' W 094°54'611.6
2017-Oct-02 21:00N 29°37' W 094°57'510.7
2017-Oct-02 20:30N 29°42' W 094°60'4 7.4
2017-Oct-02 20:00N 29°44' W 095°03'3 5.5
2017-Oct-02 19:30N 29°45' W 095°06'3 5.8
2017-Oct-02 19:00N 29°44' W 095°10'3 5.0
2017-Oct-02 18:26N 29°44' W 095°13'2 3.7
2017-Oct-02 18:00N 29°43' W 095°14'1 0.1
2017-Oct-02 11:22N 29°43' W 095°14'0 0.0
2017-Oct-02 10:52N 29°43' W 095°14'0 0.0
2017-Oct-02 10:28N 29°43' W 095°14'0 0.0
2017-Oct-02 09:55N 29°43' W 095°14'0 0.0
2017-Oct-02 07:58N 29°43' W 095°14'0 0.0
2017-Oct-02 07:28N 29°43' W 095°14'0 0.0
2017-Oct-02 06:55N 29°43' W 095°14'0 0.0
2017-Oct-02 06:28N 29°43' W 095°14'0 0.0
2017-Oct-02 05:58N 29°43' W 095°14'0 0.0
2017-Oct-02 05:28N 29°43' W 095°14'0 0.0
2017-Oct-02 04:55N 29°43' W 095°14'0 0.0
2017-Oct-02 03:49N 29°43' W 095°14'0 0.0
2017-Oct-02 03:07N 29°43' W 095°14'0 0.0
2017-Oct-02 02:55N 29°43' W 095°14'0 0.0
2017-Oct-02 02:25N 29°43' W 095°14'0 0.0
2017-Oct-02 01:43N 29°43' W 095°14'0 0.0
2017-Oct-02 01:25N 29°43' W 095°14'0 0.0
2017-Oct-02 00:43N 29°43' W 095°14'0 0.0
2017-Oct-02 00:22N 29°43' W 095°14'0 0.0
2017-Oct-01 23:58N 29°43' W 095°14'0 0.0
2017-Oct-01 23:22N 29°43' W 095°14'0 0.0
2017-Oct-01 22:49N 29°43' W 095°14'0 0.0
2017-Oct-01 22:28N 29°43' W 095°14'0 0.0
2017-Oct-01 21:49N 29°43' W 095°14'0 0.0
2017-Oct-01 21:10N 29°43' W 095°14'0 0.0
2017-Oct-01 20:55N 29°43' W 095°14'0 0.0
2017-Oct-01 20:22N 29°43' W 095°14'0 0.0
2017-Oct-01 19:55N 29°43' W 095°14'0 0.0
2017-Oct-01 19:28N 29°43' W 095°14'0 0.0
2017-Oct-01 18:55N 29°43' W 095°14'0 0.0
2017-Oct-01 18:04N 29°43' W 095°14'0 0.0
2017-Oct-01 17:55N 29°43' W 095°14'0 0.0
2017-Oct-01 17:10N 29°43' W 095°14'0 0.0
2017-Oct-01 16:43N 29°43' W 095°14'0 0.0
2017-Oct-01 14:46N 29°43' W 095°14'0 0.0
2017-Oct-01 14:22N 29°43' W 095°14'0 0.0
2017-Oct-01 12:43N 29°43' W 095°14'0 0.0
2017-Oct-01 12:16N 29°43' W 095°14'0 0.0
2017-Oct-01 11:49N 29°43' W 095°14'0 0.0
2017-Oct-01 11:28N 29°43' W 095°14'0 0.0
2017-Oct-01 10:55N 29°43' W 095°14'0 0.0
2017-Oct-01 10:30N 29°43' W 095°14'0 0.0
2017-Oct-01 10:01N 29°43' W 095°14'0 0.0
2017-Oct-01 09:28N 29°43' W 095°14'0 0.0
2017-Oct-01 08:55N 29°43' W 095°14'0 0.0
2017-Oct-01 08:19N 29°43' W 095°14'0 0.0
2017-Oct-01 08:00N 29°43' W 095°14'0 0.0
2017-Oct-01 07:27N 29°43' W 095°14'0 0.0
2017-Oct-01 07:00N 29°43' W 095°14'0 0.0
2017-Oct-01 06:30N 29°43' W 095°14'0 0.0
2017-Oct-01 05:58N 29°43' W 095°14'0 0.0
2017-Oct-01 05:28N 29°43' W 095°14'0 0.0
2017-Oct-01 04:54N 29°43' W 095°14'0 0.0
2017-Oct-01 04:27N 29°43' W 095°14'0 0.0
2017-Oct-01 03:37N 29°43' W 095°14'0 0.0
2017-Oct-01 03:18N 29°43' W 095°14'0 0.0
2017-Oct-01 03:00N 29°43' W 095°14'0 0.0
2017-Sep-30 02:00N 29°43' W 095°14'1 1.2
2017-Sep-30 01:30N 29°43' W 095°14'1 2.6
2017-Sep-30 01:00N 29°44' W 095°13'3 5.2
2017-Sep-30 00:30N 29°45' W 095°10'3 6.0
2017-Sep-30 00:00N 29°44' W 095°07'3 5.4
2017-Sep-29 23:30N 29°45' W 095°04'4 7.1
2017-Sep-29 23:00N 29°42' W 095°01'510.2
2017-Sep-29 22:30N 29°38' W 094°58'611.9
2017-Sep-29 22:01N 29°33' W 094°54'  
2017-Sep-25 22:24N 25°10' W 080°05'  

Dump ship's entire track history